sensor_id;sensor_type;location;lat;lon;timestamp;P1;durP1;ratioP1;P2;durP2;ratioP2
32451;SDS011;45528;52.102;5.242;2023-01-28T00:01:03;9.1;;;7.6;;
32451;SDS011;45528;52.102;5.242;2023-01-28T00:02:40;8.9;;;7.6;;
32451;SDS011;45528;52.102;5.242;2023-01-28T00:06:00;9.21;;;7.9;;
32451;SDS011;45528;52.102;5.242;2023-01-28T00:07:38;9.21;;;7.2;;
32451;SDS011;45528;52.102;5.242;2023-01-28T00:09:14;8.9;;;7.7;;
32451;SDS011;45528;52.102;5.242;2023-01-28T00:12:26;9.31;;;7.5;;
32451;SDS011;45528;52.102;5.242;2023-01-28T00:14:03;11.6;;;7.9;;
32451;SDS011;45528;52.102;5.242;2023-01-28T00:15:40;9.1;;;7.5;;
32451;SDS011;45528;52.102;5.242;2023-01-28T00:17:16;10.21;;;7.9;;
32451;SDS011;45528;52.102;5.242;2023-01-28T00:20:30;9.71;;;8.1;;
32451;SDS011;45528;52.102;5.242;2023-01-28T00:22:07;8.81;;;7.4;;
32451;SDS011;45528;52.102;5.242;2023-01-28T00:23:46;9.21;;;7.4;;
32451;SDS011;45528;52.102;5.242;2023-01-28T00:27:02;9.9;;;7.6;;
32451;SDS011;45528;52.102;5.242;2023-01-28T00:28:38;9.6;;;7.3;;
32451;SDS011;45528;52.102;5.242;2023-01-28T00:30:16;9.0;;;7.6;;
32451;SDS011;45528;52.102;5.242;2023-01-28T00:31:53;9.5;;;7.1;;
32451;SDS011;45528;52.102;5.242;2023-01-28T00:35:07;9.31;;;7.7;;
32451;SDS011;45528;52.102;5.242;2023-01-28T00:36:44;9.6;;;7.6;;
32451;SDS011;45528;52.102;5.242;2023-01-28T00:38:20;9.6;;;7.6;;
32451;SDS011;45528;52.102;5.242;2023-01-28T00:41:32;9.21;;;7.2;;
32451;SDS011;45528;52.102;5.242;2023-01-28T00:43:09;9.9;;;7.9;;
32451;SDS011;45528;52.102;5.242;2023-01-28T00:44:45;9.5;;;7.9;;
32451;SDS011;45528;52.102;5.242;2023-01-28T00:47:59;9.9;;;7.8;;
32451;SDS011;45528;52.102;5.242;2023-01-28T00:49:35;8.5;;;7.5;;
32451;SDS011;45528;52.102;5.242;2023-01-28T00:51:12;9.5;;;7.0;;
32451;SDS011;45528;52.102;5.242;2023-01-28T00:52:51;10.21;;;7.7;;
32451;SDS011;45528;52.102;5.242;2023-01-28T00:56:03;8.6;;;7.5;;
32451;SDS011;45528;52.102;5.242;2023-01-28T00:57:42;9.5;;;7.5;;
32451;SDS011;45528;52.102;5.242;2023-01-28T00:59:18;10.3;;;8.1;;
32451;SDS011;45528;52.102;5.242;2023-01-28T01:02:31;9.31;;;7.6;;
32451;SDS011;45528;52.102;5.242;2023-01-28T01:04:08;9.5;;;7.6;;
32451;SDS011;45528;52.102;5.242;2023-01-28T01:05:44;9.21;;;7.5;;
32451;SDS011;45528;52.102;5.242;2023-01-28T01:08:59;11.2;;;8.5;;
32451;SDS011;45528;52.102;5.242;2023-01-28T01:10:36;9.81;;;7.9;;
32451;SDS011;45528;52.102;5.242;2023-01-28T01:12:13;11.0;;;8.1;;
32451;SDS011;45528;52.102;5.242;2023-01-28T01:13:50;10.4;;;8.4;;
32451;SDS011;45528;52.102;5.242;2023-01-28T01:17:04;10.5;;;8.1;;
32451;SDS011;45528;52.102;5.242;2023-01-28T01:18:41;9.4;;;8.1;;
32451;SDS011;45528;52.102;5.242;2023-01-28T01:20:20;10.1;;;7.8;;
32451;SDS011;45528;52.102;5.242;2023-01-28T01:23:33;9.4;;;7.6;;
32451;SDS011;45528;52.102;5.242;2023-01-28T01:25:10;9.21;;;7.5;;
32451;SDS011;45528;52.102;5.242;2023-01-28T01:26:48;8.4;;;7.5;;
32451;SDS011;45528;52.102;5.242;2023-01-28T01:28:25;10.0;;;8.4;;
32451;SDS011;45528;52.102;5.242;2023-01-28T01:31:38;11.6;;;8.5;;
32451;SDS011;45528;52.102;5.242;2023-01-28T01:33:14;9.71;;;8.1;;
32451;SDS011;45528;52.102;5.242;2023-01-28T01:34:51;10.8;;;8.71;;
32451;SDS011;45528;52.102;5.242;2023-01-28T01:38:04;11.1;;;8.31;;
32451;SDS011;45528;52.102;5.242;2023-01-28T01:39:42;9.31;;;8.0;;
32451;SDS011;45528;52.102;5.242;2023-01-28T01:41:21;10.21;;;8.2;;
32451;SDS011;45528;52.102;5.242;2023-01-28T01:44:54;10.3;;;8.1;;
32451;SDS011;45528;52.102;5.242;2023-01-28T01:46:33;11.0;;;8.6;;
32451;SDS011;45528;52.102;5.242;2023-01-28T01:48:17;9.31;;;7.9;;
32451;SDS011;45528;52.102;5.242;2023-01-28T01:49:59;10.5;;;7.9;;
32451;SDS011;45528;52.102;5.242;2023-01-28T01:51:41;10.1;;;8.0;;
32451;SDS011;45528;52.102;5.242;2023-01-28T01:55:02;9.4;;;7.6;;
32451;SDS011;45528;52.102;5.242;2023-01-28T01:56:44;9.21;;;7.7;;
32451;SDS011;45528;52.102;5.242;2023-01-28T01:58:27;9.4;;;7.2;;
32451;SDS011;45528;52.102;5.242;2023-01-28T02:00:09;9.31;;;7.6;;
32451;SDS011;45528;52.102;5.242;2023-01-28T02:03:24;10.0;;;8.0;;
32451;SDS011;45528;52.102;5.242;2023-01-28T02:05:07;10.3;;;8.0;;
32451;SDS011;45528;52.102;5.242;2023-01-28T02:06:45;10.7;;;8.6;;
32451;SDS011;45528;52.102;5.242;2023-01-28T02:08:22;10.0;;;7.8;;
32451;SDS011;45528;52.102;5.242;2023-01-28T02:11:34;9.71;;;7.7;;
32451;SDS011;45528;52.102;5.242;2023-01-28T02:13:11;9.4;;;7.6;;
32451;SDS011;45528;52.102;5.242;2023-01-28T02:21:23;9.1;;;7.1;;
32451;SDS011;45528;52.102;5.242;2023-01-28T02:22:18;9.1;;;7.1;;
32451;SDS011;45528;52.102;5.242;2023-01-28T02:24:28;10.1;;;8.1;;
32451;SDS011;45528;52.102;5.242;2023-01-28T02:27:14;9.9;;;7.7;;
32451;SDS011;45528;52.102;5.242;2023-01-28T02:29:04;10.0;;;7.6;;
32451;SDS011;45528;52.102;5.242;2023-01-28T02:32:38;9.81;;;7.5;;
32451;SDS011;45528;52.102;5.242;2023-01-28T02:34:23;9.71;;;8.1;;
32451;SDS011;45528;52.102;5.242;2023-01-28T02:36:13;9.31;;;7.5;;
32451;SDS011;45528;52.102;5.242;2023-01-28T02:38:02;10.1;;;8.0;;
32451;SDS011;45528;52.102;5.242;2023-01-28T02:39:46;10.1;;;7.1;;
32451;SDS011;45528;52.102;5.242;2023-01-28T02:43:13;9.4;;;7.6;;
32451;SDS011;45528;52.102;5.242;2023-01-28T02:44:50;10.8;;;8.0;;
32451;SDS011;45528;52.102;5.242;2023-01-28T02:47:59;11.7;;;7.8;;
32451;SDS011;45528;52.102;5.242;2023-01-28T02:49:36;10.3;;;7.7;;
32451;SDS011;45528;52.102;5.242;2023-01-28T02:51:19;9.81;;;7.9;;
32451;SDS011;45528;52.102;5.242;2023-01-28T02:53:41;10.21;;;8.0;;
32451;SDS011;45528;52.102;5.242;2023-01-28T02:55:50;11.1;;;8.0;;
32451;SDS011;45528;52.102;5.242;2023-01-28T02:57:35;10.0;;;7.5;;
32451;SDS011;45528;52.102;5.242;2023-01-28T02:59:32;10.7;;;7.8;;
32451;SDS011;45528;52.102;5.242;2023-01-28T03:01:17;9.71;;;7.5;;
32451;SDS011;45528;52.102;5.242;2023-01-28T03:03:03;10.21;;;8.0;;
32451;SDS011;45528;52.102;5.242;2023-01-28T03:04:52;10.8;;;8.0;;
32451;SDS011;45528;52.102;5.242;2023-01-28T03:09:25;9.5;;;7.7;;
32451;SDS011;45528;52.102;5.242;2023-01-28T03:36:54;11.3;;;8.6;;
32451;SDS011;45528;52.102;5.242;2023-01-28T03:38:33;11.4;;;8.31;;
32451;SDS011;45528;52.102;5.242;2023-01-28T03:40:18;10.6;;;8.4;;
32451;SDS011;45528;52.102;5.242;2023-01-28T03:43:34;11.0;;;8.71;;
32451;SDS011;45528;52.102;5.242;2023-01-28T03:45:13;10.5;;;8.2;;
32451;SDS011;45528;52.102;5.242;2023-01-28T03:46:49;11.4;;;8.6;;
32451;SDS011;45528;52.102;5.242;2023-01-28T03:50:05;10.5;;;7.7;;
32451;SDS011;45528;52.102;5.242;2023-01-28T03:51:45;10.5;;;8.2;;
32451;SDS011;45528;52.102;5.242;2023-01-28T03:53:21;10.9;;;8.6;;
32451;SDS011;45528;52.102;5.242;2023-01-28T03:54:57;11.3;;;8.6;;
32451;SDS011;45528;52.102;5.242;2023-01-28T03:58:14;9.71;;;8.31;;
32451;SDS011;45528;52.102;5.242;2023-01-28T03:59:51;12.1;;;8.81;;
32451;SDS011;45528;52.102;5.242;2023-01-28T04:01:29;13.1;;;8.5;;
32451;SDS011;45528;52.102;5.242;2023-01-28T04:04:53;10.0;;;8.31;;
32451;SDS011;45528;52.102;5.242;2023-01-28T04:06:30;9.6;;;7.9;;
32451;SDS011;45528;52.102;5.242;2023-01-28T04:08:06;11.2;;;8.31;;
32451;SDS011;45528;52.102;5.242;2023-01-28T04:09:42;11.0;;;8.4;;
32451;SDS011;45528;52.102;5.242;2023-01-28T04:12:56;11.6;;;8.4;;
32451;SDS011;45528;52.102;5.242;2023-01-28T04:14:32;10.9;;;8.0;;
32451;SDS011;45528;52.102;5.242;2023-01-28T04:16:08;11.2;;;8.81;;
32451;SDS011;45528;52.102;5.242;2023-01-28T04:19:23;11.2;;;9.1;;
32451;SDS011;45528;52.102;5.242;2023-01-28T04:21:00;10.9;;;8.1;;
32451;SDS011;45528;52.102;5.242;2023-01-28T04:22:36;11.8;;;8.5;;
32451;SDS011;45528;52.102;5.242;2023-01-28T04:24:12;10.7;;;8.71;;
32451;SDS011;45528;52.102;5.242;2023-01-28T04:27:26;10.3;;;8.2;;
32451;SDS011;45528;52.102;5.242;2023-01-28T04:29:02;11.0;;;8.4;;
32451;SDS011;45528;52.102;5.242;2023-01-28T04:30:38;9.9;;;7.8;;
32451;SDS011;45528;52.102;5.242;2023-01-28T04:33:50;12.1;;;8.81;;
32451;SDS011;45528;52.102;5.242;2023-01-28T04:35:26;12.9;;;8.81;;
32451;SDS011;45528;52.102;5.242;2023-01-28T04:37:03;10.5;;;8.6;;
32451;SDS011;45528;52.102;5.242;2023-01-28T04:40:15;12.3;;;9.0;;
32451;SDS011;45528;52.102;5.242;2023-01-28T04:41:52;12.0;;;8.81;;
32451;SDS011;45528;52.102;5.242;2023-01-28T04:43:28;11.6;;;8.4;;
32451;SDS011;45528;52.102;5.242;2023-01-28T04:45:05;11.6;;;9.21;;
32451;SDS011;45528;52.102;5.242;2023-01-28T04:48:19;11.6;;;8.31;;
32451;SDS011;45528;52.102;5.242;2023-01-28T04:49:55;11.5;;;8.81;;
32451;SDS011;45528;52.102;5.242;2023-01-28T04:51:31;11.7;;;8.71;;
32451;SDS011;45528;52.102;5.242;2023-01-28T04:54:44;11.3;;;8.5;;
32451;SDS011;45528;52.102;5.242;2023-01-28T04:56:21;11.6;;;8.6;;
32451;SDS011;45528;52.102;5.242;2023-01-28T04:57:57;11.8;;;9.31;;
32451;SDS011;45528;52.102;5.242;2023-01-28T05:01:10;12.1;;;9.31;;
32451;SDS011;45528;52.102;5.242;2023-01-28T05:02:46;10.5;;;8.4;;
32451;SDS011;45528;52.102;5.242;2023-01-28T05:04:22;11.1;;;8.4;;
32451;SDS011;45528;52.102;5.242;2023-01-28T05:05:58;12.2;;;9.0;;
32451;SDS011;45528;52.102;5.242;2023-01-28T05:09:12;11.5;;;9.31;;
32451;SDS011;45528;52.102;5.242;2023-01-28T05:10:48;11.8;;;8.9;;
32451;SDS011;45528;52.102;5.242;2023-01-28T05:12:24;9.81;;;8.0;;
32451;SDS011;45528;52.102;5.242;2023-01-28T05:15:37;11.0;;;8.4;;
32451;SDS011;45528;52.102;5.242;2023-01-28T05:17:13;12.4;;;8.6;;
32451;SDS011;45528;52.102;5.242;2023-01-28T05:18:50;9.9;;;7.9;;
32451;SDS011;45528;52.102;5.242;2023-01-28T05:22:02;12.3;;;8.6;;
32451;SDS011;45528;52.102;5.242;2023-01-28T05:23:38;10.6;;;8.1;;
32451;SDS011;45528;52.102;5.242;2023-01-28T05:25:14;10.0;;;8.4;;
32451;SDS011;45528;52.102;5.242;2023-01-28T05:28:26;12.2;;;8.9;;
32451;SDS011;45528;52.102;5.242;2023-01-28T05:30:06;10.4;;;7.9;;
32451;SDS011;45528;52.102;5.242;2023-01-28T05:31:43;9.5;;;8.1;;
32451;SDS011;45528;52.102;5.242;2023-01-28T05:33:19;9.1;;;7.7;;
32451;SDS011;45528;52.102;5.242;2023-01-28T05:36:31;9.71;;;7.8;;
32451;SDS011;45528;52.102;5.242;2023-01-28T05:38:07;9.9;;;8.1;;
32451;SDS011;45528;52.102;5.242;2023-01-28T05:39:43;10.1;;;7.7;;
32451;SDS011;45528;52.102;5.242;2023-01-28T05:42:56;9.9;;;8.1;;
32451;SDS011;45528;52.102;5.242;2023-01-28T05:44:32;9.1;;;7.4;;
32451;SDS011;45528;52.102;5.242;2023-01-28T05:46:08;9.31;;;7.3;;
32451;SDS011;45528;52.102;5.242;2023-01-28T05:49:21;10.5;;;7.5;;
32451;SDS011;45528;52.102;5.242;2023-01-28T05:50:57;10.5;;;8.2;;
32451;SDS011;45528;52.102;5.242;2023-01-28T05:52:34;9.81;;;7.7;;
32451;SDS011;45528;52.102;5.242;2023-01-28T05:54:11;11.3;;;8.71;;
32451;SDS011;45528;52.102;5.242;2023-01-28T05:57:24;10.8;;;8.31;;
32451;SDS011;45528;52.102;5.242;2023-01-28T05:59:00;10.3;;;8.31;;
32451;SDS011;45528;52.102;5.242;2023-01-28T06:00:37;10.3;;;7.9;;
32451;SDS011;45528;52.102;5.242;2023-01-28T06:03:49;10.5;;;8.81;;
32451;SDS011;45528;52.102;5.242;2023-01-28T06:05:25;9.4;;;7.7;;
32451;SDS011;45528;52.102;5.242;2023-01-28T06:07:02;10.7;;;8.0;;
32451;SDS011;45528;52.102;5.242;2023-01-28T06:10:16;11.6;;;8.5;;
32451;SDS011;45528;52.102;5.242;2023-01-28T06:11:53;10.5;;;8.4;;
32451;SDS011;45528;52.102;5.242;2023-01-28T06:13:29;11.2;;;7.9;;
32451;SDS011;45528;52.102;5.242;2023-01-28T06:15:06;11.2;;;8.2;;
32451;SDS011;45528;52.102;5.242;2023-01-28T06:18:18;11.2;;;8.5;;
32451;SDS011;45528;52.102;5.242;2023-01-28T06:19:55;10.7;;;8.1;;
32451;SDS011;45528;52.102;5.242;2023-01-28T06:21:31;11.0;;;8.6;;
32451;SDS011;45528;52.102;5.242;2023-01-28T06:24:45;11.6;;;8.6;;
32451;SDS011;45528;52.102;5.242;2023-01-28T06:26:21;10.8;;;9.21;;
32451;SDS011;45528;52.102;5.242;2023-01-28T06:27:57;11.2;;;9.21;;
32451;SDS011;45528;52.102;5.242;2023-01-28T06:31:11;10.21;;;8.6;;
32451;SDS011;45528;52.102;5.242;2023-01-28T06:32:47;14.1;;;9.4;;
32451;SDS011;45528;52.102;5.242;2023-01-28T06:34:29;12.5;;;9.6;;
32451;SDS011;45528;52.102;5.242;2023-01-28T06:36:06;11.7;;;9.5;;
32451;SDS011;45528;52.102;5.242;2023-01-28T06:39:20;12.3;;;9.1;;
32451;SDS011;45528;52.102;5.242;2023-01-28T06:40:57;13.2;;;9.71;;
32451;SDS011;45528;52.102;5.242;2023-01-28T06:42:33;11.9;;;9.21;;
32451;SDS011;45528;52.102;5.242;2023-01-28T06:45:47;10.5;;;8.81;;
32451;SDS011;45528;52.102;5.242;2023-01-28T06:47:23;13.5;;;9.6;;
32451;SDS011;45528;52.102;5.242;2023-01-28T06:48:59;12.0;;;9.71;;
32451;SDS011;45528;52.102;5.242;2023-01-28T06:50:35;13.6;;;10.5;;
32451;SDS011;45528;52.102;5.242;2023-01-28T06:53:47;15.1;;;10.5;;
32451;SDS011;45528;52.102;5.242;2023-01-28T06:55:23;14.1;;;10.4;;
32451;SDS011;45528;52.102;5.242;2023-01-28T06:56:59;14.1;;;10.4;;
32451;SDS011;45528;52.102;5.242;2023-01-28T07:00:14;13.1;;;10.4;;
32451;SDS011;45528;52.102;5.242;2023-01-28T07:01:51;13.5;;;10.1;;
32451;SDS011;45528;52.102;5.242;2023-01-28T07:03:27;12.4;;;9.71;;
32451;SDS011;45528;52.102;5.242;2023-01-28T07:06:40;12.9;;;10.0;;
32451;SDS011;45528;52.102;5.242;2023-01-28T07:08:16;12.1;;;9.81;;
32451;SDS011;45528;52.102;5.242;2023-01-28T07:09:52;12.5;;;9.71;;
32451;SDS011;45528;52.102;5.242;2023-01-28T07:13:05;13.2;;;11.0;;
32451;SDS011;45528;52.102;5.242;2023-01-28T07:14:41;11.9;;;9.71;;
32451;SDS011;45528;52.102;5.242;2023-01-28T07:16:17;13.6;;;10.5;;
32451;SDS011;45528;52.102;5.242;2023-01-28T07:17:53;13.0;;;10.21;;
32451;SDS011;45528;52.102;5.242;2023-01-28T07:21:07;13.1;;;10.1;;
32451;SDS011;45528;52.102;5.242;2023-01-28T07:22:43;12.8;;;10.0;;
32451;SDS011;45528;52.102;5.242;2023-01-28T07:24:20;14.2;;;10.21;;
32451;SDS011;45528;52.102;5.242;2023-01-28T07:27:36;13.6;;;10.4;;
32451;SDS011;45528;52.102;5.242;2023-01-28T07:29:12;12.9;;;10.3;;
32451;SDS011;45528;52.102;5.242;2023-01-28T07:30:48;14.6;;;10.0;;
32451;SDS011;45528;52.102;5.242;2023-01-28T07:34:02;13.4;;;10.21;;
32451;SDS011;45528;52.102;5.242;2023-01-28T07:35:38;15.7;;;10.21;;
32451;SDS011;45528;52.102;5.242;2023-01-28T07:37:14;12.7;;;9.81;;
32451;SDS011;45528;52.102;5.242;2023-01-28T07:38:51;13.6;;;10.0;;
32451;SDS011;45528;52.102;5.242;2023-01-28T07:42:04;14.2;;;10.8;;
32451;SDS011;45528;52.102;5.242;2023-01-28T07:43:40;13.6;;;10.4;;
32451;SDS011;45528;52.102;5.242;2023-01-28T07:45:16;14.4;;;10.4;;
32451;SDS011;45528;52.102;5.242;2023-01-28T07:48:29;14.2;;;9.9;;
32451;SDS011;45528;52.102;5.242;2023-01-28T07:50:07;13.2;;;10.21;;
32451;SDS011;45528;52.102;5.242;2023-01-28T07:51:46;13.5;;;10.3;;
32451;SDS011;45528;52.102;5.242;2023-01-28T07:53:22;12.6;;;9.81;;
32451;SDS011;45528;52.102;5.242;2023-01-28T07:56:34;14.7;;;10.9;;
32451;SDS011;45528;52.102;5.242;2023-01-28T07:58:10;13.9;;;10.4;;
32451;SDS011;45528;52.102;5.242;2023-01-28T07:59:47;11.1;;;8.9;;
32451;SDS011;45528;52.102;5.242;2023-01-28T08:03:01;11.7;;;8.6;;
32451;SDS011;45528;52.102;5.242;2023-01-28T08:04:41;12.3;;;9.0;;
32451;SDS011;45528;52.102;5.242;2023-01-28T08:06:17;11.3;;;9.1;;
32451;SDS011;45528;52.102;5.242;2023-01-28T08:09:29;12.2;;;8.81;;
32451;SDS011;45528;52.102;5.242;2023-01-28T08:11:06;12.5;;;9.6;;
32451;SDS011;45528;52.102;5.242;2023-01-28T08:12:49;13.8;;;9.81;;
32451;SDS011;45528;52.102;5.242;2023-01-28T08:14:26;12.6;;;9.81;;
32451;SDS011;45528;52.102;5.242;2023-01-28T08:17:40;12.2;;;9.31;;
32451;SDS011;45528;52.102;5.242;2023-01-28T08:19:17;12.3;;;8.1;;
32451;SDS011;45528;52.102;5.242;2023-01-28T08:20:54;11.1;;;8.1;;
32451;SDS011;45528;52.102;5.242;2023-01-28T08:24:07;9.0;;;7.0;;
32451;SDS011;45528;52.102;5.242;2023-01-28T08:25:43;7.7;;;6.5;;
32451;SDS011;45528;52.102;5.242;2023-01-28T08:27:20;8.5;;;5.6;;
32451;SDS011;45528;52.102;5.242;2023-01-28T08:28:56;7.9;;;6.2;;
32451;SDS011;45528;52.102;5.242;2023-01-28T08:32:10;8.4;;;6.4;;
32451;SDS011;45528;52.102;5.242;2023-01-28T08:33:46;8.5;;;7.1;;
32451;SDS011;45528;52.102;5.242;2023-01-28T08:35:22;12.8;;;6.8;;
32451;SDS011;45528;52.102;5.242;2023-01-28T08:38:34;11.2;;;7.3;;
32451;SDS011;45528;52.102;5.242;2023-01-28T08:40:10;10.6;;;7.5;;
32451;SDS011;45528;52.102;5.242;2023-01-28T08:41:47;9.5;;;7.2;;
32451;SDS011;45528;52.102;5.242;2023-01-28T08:45:00;9.71;;;7.0;;
32451;SDS011;45528;52.102;5.242;2023-01-28T08:46:36;11.2;;;8.2;;
32451;SDS011;45528;52.102;5.242;2023-01-28T08:48:13;10.9;;;7.8;;
32451;SDS011;45528;52.102;5.242;2023-01-28T08:49:52;14.7;;;9.1;;
32451;SDS011;45528;52.102;5.242;2023-01-28T08:53:06;10.4;;;8.1;;
32451;SDS011;45528;52.102;5.242;2023-01-28T08:54:45;11.4;;;7.7;;
32451;SDS011;45528;52.102;5.242;2023-01-28T08:56:21;10.6;;;7.2;;
32451;SDS011;45528;52.102;5.242;2023-01-28T08:59:43;11.1;;;7.3;;
32451;SDS011;45528;52.102;5.242;2023-01-28T09:01:19;9.71;;;7.0;;
32451;SDS011;45528;52.102;5.242;2023-01-28T09:02:56;9.9;;;7.4;;
32451;SDS011;45528;52.102;5.242;2023-01-28T09:04:32;24.8;;;16.11;;
32451;SDS011;45528;52.102;5.242;2023-01-28T09:07:44;13.3;;;8.6;;
32451;SDS011;45528;52.102;5.242;2023-01-28T09:09:21;11.9;;;7.9;;
32451;SDS011;45528;52.102;5.242;2023-01-28T09:10:58;9.4;;;6.9;;
32451;SDS011;45528;52.102;5.242;2023-01-28T09:14:11;12.3;;;7.2;;
32451;SDS011;45528;52.102;5.242;2023-01-28T09:15:50;10.7;;;6.7;;
32451;SDS011;45528;52.102;5.242;2023-01-28T09:17:26;9.21;;;7.0;;
32451;SDS011;45528;52.102;5.242;2023-01-28T09:20:38;13.1;;;7.6;;
32451;SDS011;45528;52.102;5.242;2023-01-28T09:22:15;8.31;;;6.3;;
32451;SDS011;45528;52.102;5.242;2023-01-28T09:23:54;8.2;;;5.8;;
32451;SDS011;45528;52.102;5.242;2023-01-28T09:25:31;8.71;;;5.9;;
32451;SDS011;45528;52.102;5.242;2023-01-28T09:28:43;9.21;;;6.2;;
32451;SDS011;45528;52.102;5.242;2023-01-28T09:30:23;9.0;;;6.2;;
32451;SDS011;45528;52.102;5.242;2023-01-28T09:35:16;7.7;;;6.0;;
32451;SDS011;45528;52.102;5.242;2023-01-28T09:36:53;9.4;;;6.7;;
32451;SDS011;45528;52.102;5.242;2023-01-28T09:38:29;8.9;;;6.3;;
32451;SDS011;45528;52.102;5.242;2023-01-28T09:41:54;9.81;;;7.6;;
32451;SDS011;45528;52.102;5.242;2023-01-28T09:43:58;11.5;;;8.0;;
32451;SDS011;45528;52.102;5.242;2023-01-28T09:45:41;10.9;;;7.8;;
32451;SDS011;45528;52.102;5.242;2023-01-28T09:47:23;11.6;;;8.6;;
32451;SDS011;45528;52.102;5.242;2023-01-28T09:49:05;10.8;;;8.6;;
32451;SDS011;45528;52.102;5.242;2023-01-28T09:50:52;13.7;;;9.71;;
32451;SDS011;45528;52.102;5.242;2023-01-28T09:54:13;15.7;;;9.71;;
32451;SDS011;45528;52.102;5.242;2023-01-28T09:56:02;11.3;;;8.71;;
32451;SDS011;45528;52.102;5.242;2023-01-28T09:57:42;11.7;;;8.5;;
32451;SDS011;45528;52.102;5.242;2023-01-28T09:59:24;11.8;;;8.6;;
32451;SDS011;45528;52.102;5.242;2023-01-28T10:03:09;11.9;;;8.0;;
32451;SDS011;45528;52.102;5.242;2023-01-28T10:05:13;12.2;;;8.0;;
32451;SDS011;45528;52.102;5.242;2023-01-28T10:06:57;11.8;;;7.8;;
32451;SDS011;45528;52.102;5.242;2023-01-28T10:09:02;12.3;;;8.31;;
32451;SDS011;45528;52.102;5.242;2023-01-28T10:11:09;11.9;;;7.9;;
32451;SDS011;45528;52.102;5.242;2023-01-28T10:12:58;11.2;;;8.2;;
32451;SDS011;45528;52.102;5.242;2023-01-28T10:14:50;11.6;;;7.5;;
32451;SDS011;45528;52.102;5.242;2023-01-28T10:16:41;10.5;;;6.8;;
32451;SDS011;45528;52.102;5.242;2023-01-28T10:18:26;8.81;;;5.9;;
32451;SDS011;45528;52.102;5.242;2023-01-28T10:20:13;6.4;;;5.0;;
32451;SDS011;45528;52.102;5.242;2023-01-28T10:23:40;7.0;;;4.7;;
32451;SDS011;45528;52.102;5.242;2023-01-28T10:25:30;5.4;;;3.1;;
32451;SDS011;45528;52.102;5.242;2023-01-28T10:27:09;4.7;;;3.2;;
32451;SDS011;45528;52.102;5.242;2023-01-28T10:28:53;4.8;;;3.7;;
32451;SDS011;45528;52.102;5.242;2023-01-28T10:30:33;5.7;;;3.5;;
32451;SDS011;45528;52.102;5.242;2023-01-28T10:34:04;4.3;;;2.7;;
32451;SDS011;45528;52.102;5.242;2023-01-28T10:35:41;5.2;;;3.2;;
32451;SDS011;45528;52.102;5.242;2023-01-28T10:37:18;4.7;;;3.1;;
32451;SDS011;45528;52.102;5.242;2023-01-28T10:38:55;4.2;;;3.1;;
32451;SDS011;45528;52.102;5.242;2023-01-28T10:42:16;5.6;;;3.3;;
32451;SDS011;45528;52.102;5.242;2023-01-28T10:44:01;4.91;;;3.5;;
32451;SDS011;45528;52.102;5.242;2023-01-28T10:45:39;5.4;;;3.5;;
32451;SDS011;45528;52.102;5.242;2023-01-28T10:47:30;4.8;;;3.2;;
32451;SDS011;45528;52.102;5.242;2023-01-28T10:50:55;5.7;;;3.4;;
32451;SDS011;45528;52.102;5.242;2023-01-28T10:52:32;5.2;;;3.2;;
32451;SDS011;45528;52.102;5.242;2023-01-28T10:54:24;6.4;;;3.0;;
32451;SDS011;45528;52.102;5.242;2023-01-28T10:56:03;3.6;;;2.4;;
32451;SDS011;45528;52.102;5.242;2023-01-28T10:57:42;4.2;;;3.0;;
32451;SDS011;45528;52.102;5.242;2023-01-28T11:01:01;5.6;;;3.1;;
32451;SDS011;45528;52.102;5.242;2023-01-28T11:02:42;4.7;;;3.4;;
32451;SDS011;45528;52.102;5.242;2023-01-28T11:04:21;6.1;;;3.5;;
32451;SDS011;45528;52.102;5.242;2023-01-28T11:07:37;3.5;;;2.5;;
32451;SDS011;45528;52.102;5.242;2023-01-28T11:09:21;3.1;;;2.7;;
32451;SDS011;45528;52.102;5.242;2023-01-28T11:10:59;5.2;;;2.8;;
32451;SDS011;45528;52.102;5.242;2023-01-28T11:12:35;5.6;;;2.6;;
32451;SDS011;45528;52.102;5.242;2023-01-28T11:15:57;5.5;;;2.6;;
32451;SDS011;45528;52.102;5.242;2023-01-28T11:17:41;4.7;;;2.7;;
32451;SDS011;45528;52.102;5.242;2023-01-28T11:19:28;4.3;;;2.5;;
32451;SDS011;45528;52.102;5.242;2023-01-28T11:21:13;5.4;;;3.2;;
32451;SDS011;45528;52.102;5.242;2023-01-28T11:22:54;5.8;;;3.3;;
32451;SDS011;45528;52.102;5.242;2023-01-28T11:26:13;5.11;;;3.1;;
32451;SDS011;45528;52.102;5.242;2023-01-28T11:27:53;3.9;;;2.6;;
32451;SDS011;45528;52.102;5.242;2023-01-28T11:29:30;5.4;;;2.8;;
32451;SDS011;45528;52.102;5.242;2023-01-28T11:31:09;4.41;;;3.2;;
32451;SDS011;45528;52.102;5.242;2023-01-28T11:34:46;5.2;;;2.9;;
32451;SDS011;45528;52.102;5.242;2023-01-28T11:36:24;5.5;;;2.9;;
32451;SDS011;45528;52.102;5.242;2023-01-28T11:38:10;6.4;;;2.9;;
32451;SDS011;45528;52.102;5.242;2023-01-28T11:40:01;4.91;;;2.9;;
32451;SDS011;45528;52.102;5.242;2023-01-28T11:41:48;4.1;;;2.31;;
32451;SDS011;45528;52.102;5.242;2023-01-28T11:45:08;4.1;;;2.31;;
32451;SDS011;45528;52.102;5.242;2023-01-28T11:47:41;4.8;;;2.4;;
32451;SDS011;45528;52.102;5.242;2023-01-28T11:49:32;4.5;;;2.6;;
32451;SDS011;45528;52.102;5.242;2023-01-28T11:51:26;3.4;;;2.1;;
32451;SDS011;45528;52.102;5.242;2023-01-28T11:53:16;3.6;;;2.0;;
32451;SDS011;45528;52.102;5.242;2023-01-28T11:55:39;3.2;;;2.1;;
32451;SDS011;45528;52.102;5.242;2023-01-28T11:57:24;7.6;;;2.31;;
32451;SDS011;45528;52.102;5.242;2023-01-28T11:59:16;3.6;;;1.9;;
32451;SDS011;45528;52.102;5.242;2023-01-28T12:01:08;4.1;;;2.31;;
32451;SDS011;45528;52.102;5.242;2023-01-28T12:02:52;5.2;;;2.21;;
32451;SDS011;45528;52.102;5.242;2023-01-28T12:06:40;4.41;;;1.9;;
32451;SDS011;45528;52.102;5.242;2023-01-28T12:08:33;5.4;;;2.1;;
32451;SDS011;45528;52.102;5.242;2023-01-28T12:10:19;5.9;;;2.31;;
32451;SDS011;45528;52.102;5.242;2023-01-28T12:12:15;6.8;;;2.0;;
32451;SDS011;45528;52.102;5.242;2023-01-28T12:14:15;3.3;;;2.1;;
32451;SDS011;45528;52.102;5.242;2023-01-28T12:16:12;4.61;;;2.0;;
32451;SDS011;45528;52.102;5.242;2023-01-28T12:18:29;5.4;;;2.4;;
32451;SDS011;45528;52.102;5.242;2023-01-28T12:20:21;5.8;;;2.5;;
32451;SDS011;45528;52.102;5.242;2023-01-28T12:22:09;5.2;;;2.31;;
32451;SDS011;45528;52.102;5.242;2023-01-28T12:25:28;5.3;;;2.1;;
32451;SDS011;45528;52.102;5.242;2023-01-28T12:27:21;3.9;;;2.1;;
32451;SDS011;45528;52.102;5.242;2023-01-28T12:29:14;4.0;;;2.21;;
32451;SDS011;45528;52.102;5.242;2023-01-28T12:31:07;3.0;;;1.8;;
32451;SDS011;45528;52.102;5.242;2023-01-28T12:33:05;3.6;;;2.0;;
32451;SDS011;45528;52.102;5.242;2023-01-28T12:35:17;7.0;;;2.31;;
32451;SDS011;45528;52.102;5.242;2023-01-28T12:37:35;5.5;;;2.31;;
32451;SDS011;45528;52.102;5.242;2023-01-28T12:39:28;4.1;;;2.0;;
32451;SDS011;45528;52.102;5.242;2023-01-28T12:41:17;4.61;;;2.0;;
32451;SDS011;45528;52.102;5.242;2023-01-28T12:42:58;3.4;;;1.8;;
32451;SDS011;45528;52.102;5.242;2023-01-28T12:44:41;3.4;;;1.6;;
32451;SDS011;45528;52.102;5.242;2023-01-28T12:48:15;4.0;;;1.9;;
32451;SDS011;45528;52.102;5.242;2023-01-28T12:49:58;3.6;;;1.9;;
32451;SDS011;45528;52.102;5.242;2023-01-28T12:51:49;3.3;;;2.21;;
32451;SDS011;45528;52.102;5.242;2023-01-28T12:53:36;4.3;;;2.31;;
32451;SDS011;45528;52.102;5.242;2023-01-28T12:55:19;5.11;;;2.6;;
32451;SDS011;45528;52.102;5.242;2023-01-28T12:57:13;4.41;;;2.31;;
32451;SDS011;45528;52.102;5.242;2023-01-28T13:00:41;3.6;;;2.4;;
32451;SDS011;45528;52.102;5.242;2023-01-28T13:02:24;5.9;;;2.5;;
32451;SDS011;45528;52.102;5.242;2023-01-28T13:04:05;3.7;;;2.31;;
32451;SDS011;45528;52.102;5.242;2023-01-28T13:05:48;4.8;;;2.4;;
32451;SDS011;45528;52.102;5.242;2023-01-28T13:07:30;3.8;;;2.6;;
32451;SDS011;45528;52.102;5.242;2023-01-28T13:10:54;6.3;;;2.9;;
32451;SDS011;45528;52.102;5.242;2023-01-28T13:12:33;3.9;;;2.5;;
32451;SDS011;45528;52.102;5.242;2023-01-28T13:14:13;3.8;;;2.6;;
32451;SDS011;45528;52.102;5.242;2023-01-28T13:15:50;4.8;;;2.5;;
32451;SDS011;45528;52.102;5.242;2023-01-28T13:19:07;3.8;;;2.5;;
32451;SDS011;45528;52.102;5.242;2023-01-28T13:20:57;5.0;;;2.8;;
32451;SDS011;45528;52.102;5.242;2023-01-28T13:22:35;4.1;;;2.6;;
32451;SDS011;45528;52.102;5.242;2023-01-28T13:24:21;4.61;;;2.4;;